Time;durP1;ratioP1;P1;durP2;ratioP2;P2;SDS_P1;SDS_P2;PMS_P1;PMS_P2;Temp;Humidity;BMP_temperature;BMP_pressure;BME280_temperature;BME280_humidity;BME280_pressure;Samples;Min_cycle;Max_cycle;Signal;HPM_P1;HPM_P2
2021/08/07 00:00:31;;;;;;;1.30;1.20;;;19.60;99.90;;;;;;2072188;28;20022;-68
2021/08/07 00:01:31;;;;;;;1.63;1.10;;;19.60;99.90;;;;;;2072418;28;20466;-68
2021/08/07 00:02:32;;;;;;;0.90;0.90;;;19.50;99.90;;;;;;2074908;28;20034;-68
2021/08/07 00:03:33;;;;;;;2.80;1.20;;;19.50;99.90;;;;;;2071856;28;20057;-69
2021/08/07 00:04:33;;;;;;;1.92;1.17;;;19.50;99.90;;;;;;2072247;28;20065;-68
2021/08/07 00:05:34;;;;;;;2.45;0.93;;;19.50;99.90;;;;;;2072534;28;20021;-68
2021/08/07 00:06:34;;;;;;;1.40;1.00;;;19.50;99.90;;;;;;2072579;28;20104;-68
2021/08/07 00:07:35;;;;;;;2.50;0.90;;;19.50;99.90;;;;;;2071796;28;20386;-68
2021/08/07 00:08:36;;;;;;;3.08;1.20;;;19.50;99.90;;;;;;2072734;28;20030;-68
2021/08/07 00:09:36;;;;;;;4.40;1.17;;;19.50;99.90;;;;;;2072435;28;20029;-68
2021/08/07 00:10:37;;;;;;;1.40;1.00;;;19.50;99.90;;;;;;2072258;28;20481;-68
2021/08/07 00:11:37;;;;;;;1.58;1.02;;;19.50;99.90;;;;;;2072150;28;20029;-69
2021/08/07 00:12:38;;;;;;;2.10;1.02;;;19.40;99.90;;;;;;2071720;28;20076;-68
2021/08/07 00:13:39;;;;;;;3.05;1.20;;;19.40;99.90;;;;;;2072132;28;20022;-68
2021/08/07 00:14:39;;;;;;;2.10;1.00;;;19.50;99.90;;;;;;2072302;28;20084;-68
2021/08/07 00:15:40;;;;;;;1.48;1.05;;;19.40;99.90;;;;;;2072096;28;20021;-68
2021/08/07 00:16:41;;;;;;;4.40;1.23;;;19.40;99.90;;;;;;2075794;28;20031;-68
2021/08/07 00:17:41;;;;;;;1.52;1.02;;;19.40;99.90;;;;;;2072206;28;20171;-68
2021/08/07 00:18:43;;;;;;;1.65;1.00;;;19.40;99.90;;;;;;2072073;28;20088;-68
2021/08/07 00:19:43;;;;;;;1.88;1.23;;;19.50;99.90;;;;;;2072461;28;20072;-68
2021/08/07 00:20:44;;;;;;;1.67;1.17;;;19.40;99.90;;;;;;2072183;28;20033;-68
2021/08/07 00:21:44;;;;;;;1.85;1.30;;;19.40;99.90;;;;;;2071990;28;20056;-69
2021/08/07 00:22:45;;;;;;;1.88;1.33;;;19.40;99.90;;;;;;2071853;28;20037;-68
2021/08/07 00:23:45;;;;;;;1.20;1.08;;;19.40;99.90;;;;;;2072053;28;20064;-69
2021/08/07 00:24:47;;;;;;;1.02;0.90;;;19.40;99.90;;;;;;2072206;28;20064;-68
2021/08/07 00:25:48;;;;;;;2.65;0.95;;;19.40;99.90;;;;;;2071420;28;20033;-68
2021/08/07 00:26:48;;;;;;;1.20;1.10;;;19.40;99.90;;;;;;2072631;28;20041;-68
2021/08/07 00:27:49;;;;;;;1.65;0.85;;;19.40;99.90;;;;;;2063480;28;20065;-68
2021/08/07 00:28:50;;;;;;;3.97;0.95;;;19.40;99.90;;;;;;2070569;28;20122;-68
2021/08/07 00:29:51;;;;;;;4.57;1.17;;;19.40;99.90;;;;;;2066651;28;20026;-68
2021/08/07 00:30:51;;;;;;;1.80;0.98;;;19.40;99.90;;;;;;2072113;28;20033;-68
2021/08/07 00:31:52;;;;;;;1.95;1.10;;;19.40;99.90;;;;;;2071834;28;20042;-68
2021/08/07 00:32:52;;;;;;;5.00;1.17;;;19.40;99.90;;;;;;2071400;28;20041;-69
2021/08/07 00:33:53;;;;;;;3.08;1.00;;;19.40;99.90;;;;;;2072162;28;20026;-68
2021/08/07 00:34:53;;;;;;;1.02;0.93;;;19.40;99.90;;;;;;2072105;28;20021;-68
2021/08/07 00:35:54;;;;;;;1.60;1.48;;;19.40;99.90;;;;;;2072252;28;20029;-68
2021/08/07 00:36:55;;;;;;;1.55;1.00;;;19.40;99.90;;;;;;2072522;28;20099;-68
2021/08/07 00:37:55;;;;;;;2.42;0.80;;;19.40;99.90;;;;;;2071988;28;20022;-69
2021/08/07 00:38:56;;;;;;;1.65;0.98;;;19.40;99.90;;;;;;2072207;28;20414;-68
2021/08/07 00:39:57;;;;;;;1.27;1.02;;;19.40;99.90;;;;;;2071967;28;20473;-69
2021/08/07 00:40:57;;;;;;;1.42;1.10;;;19.40;99.90;;;;;;2086910;28;20024;-69
2021/08/07 00:41:58;;;;;;;1.20;1.10;;;19.40;99.90;;;;;;2078625;28;20025;-69
2021/08/07 00:42:59;;;;;;;2.88;1.20;;;19.40;99.90;;;;;;2071500;28;20026;-69
2021/08/07 00:43:59;;;;;;;1.80;1.08;;;19.40;99.90;;;;;;2072420;28;20708;-69
2021/08/07 00:45:00;;;;;;;1.42;1.10;;;19.40;99.90;;;;;;2071816;28;20033;-69
2021/08/07 00:46:00;;;;;;;1.80;0.80;;;19.40;99.90;;;;;;2072219;28;20022;-68
2021/08/07 00:47:01;;;;;;;2.67;1.10;;;19.40;99.90;;;;;;2071999;28;20493;-68
2021/08/07 00:48:01;;;;;;;2.10;1.10;;;19.40;99.90;;;;;;2072243;28;20030;-68
2021/08/07 00:49:03;;;;;;;1.05;1.00;;;19.40;99.90;;;;;;2071879;28;20113;-68
2021/08/07 00:50:06;;;;;;;2.45;1.15;;;19.40;99.90;;;;;;2072318;28;20451;-68
2021/08/07 00:51:06;;;;;;;1.92;1.13;;;19.40;99.90;;;;;;2075128;28;20033;-68
2021/08/07 00:52:07;;;;;;;1.20;0.98;;;19.40;99.90;;;;;;2071700;28;20033;-68
2021/08/07 00:53:08;;;;;;;2.75;1.00;;;19.40;99.90;;;;;;2071497;28;20029;-69
2021/08/07 00:54:09;;;;;;;1.77;1.02;;;19.40;99.90;;;;;;2071851;28;20034;-69
2021/08/07 00:55:09;;;;;;;1.52;1.10;;;19.40;99.90;;;;;;2072078;28;20018;-69
2021/08/07 00:56:10;;;;;;;1.23;1.13;;;19.40;99.90;;;;;;2071770;28;20033;-69
2021/08/07 00:57:11;;;;;;;1.00;0.90;;;19.40;99.90;;;;;;2071989;28;20022;-69
2021/08/07 00:58:11;;;;;;;2.15;1.10;;;19.40;99.90;;;;;;2071957;28;20018;-68
2021/08/07 00:59:12;;;;;;;3.35;1.00;;;19.40;99.90;;;;;;2072145;28;20018;-69
2021/08/07 01:00:12;;;;;;;3.60;1.30;;;19.40;99.90;;;;;;2072140;28;20183;-69
2021/08/07 01:01:16;;;;;;;1.52;1.00;;;19.40;99.90;;;;;;2072122;28;20029;-69
2021/08/07 01:02:22;;;;;;;1.40;1.10;;;19.40;99.90;;;;;;2071671;28;20018;-69
2021/08/07 01:03:39;;;;;;;1.67;1.00;;;19.40;99.90;;;;;;2071467;28;20034;-69
2021/08/07 01:05:01;;;;;;;2.25;1.35;;;19.30;99.90;;;;;;2071661;28;20385;-69
2021/08/07 01:06:33;;;;;;;0.88;0.88;;;19.30;99.90;;;;;;2070424;28;20029;-69
2021/08/07 01:08:02;;;;;;;3.53;1.30;;;19.30;99.90;;;;;;2071864;28;20041;-69
2021/08/07 01:09:05;;;;;;;1.30;1.00;;;19.30;99.90;;;;;;2071954;28;20030;-69
2021/08/07 01:10:26;;;;;;;1.88;1.05;;;19.30;99.90;;;;;;2071703;28;20030;-69
2021/08/07 01:11:45;;;;;;;2.33;1.20;;;19.30;99.90;;;;;;2071955;28;20034;-68
2021/08/07 01:12:56;;;;;;;1.80;1.17;;;19.30;99.90;;;;;;2071047;28;20033;-69
2021/08/07 01:14:00;;;;;;;1.48;1.20;;;19.30;99.90;;;;;;2071882;28;20105;-68
2021/08/07 01:15:02;;;;;;;2.20;1.13;;;19.30;99.90;;;;;;2071893;28;20026;-68
2021/08/07 01:16:19;;;;;;;1.95;1.00;;;19.30;99.90;;;;;;2071795;28;20190;-68
2021/08/07 01:17:26;;;;;;;1.13;1.00;;;19.30;99.90;;;;;;2071968;28;20021;-69
2021/08/07 01:18:28;;;;;;;1.30;1.20;;;19.30;99.90;;;;;;2071773;28;20052;-69
2021/08/07 01:19:38;;;;;;;2.25;1.20;;;19.30;99.90;;;;;;2071970;28;20025;-68
2021/08/07 01:20:43;;;;;;;3.00;1.05;;;19.30;99.90;;;;;;2071617;28;20030;-68
2021/08/07 01:21:56;;;;;;;1.52;1.15;;;19.30;99.90;;;;;;2071779;28;20030;-68
2021/08/07 01:22:59;;;;;;;3.05;1.10;;;19.30;99.90;;;;;;2071439;28;20108;-69
2021/08/07 01:24:04;;;;;;;3.65;1.30;;;19.30;99.90;;;;;;2071694;28;20850;-69
2021/08/07 01:25:09;;;;;;;2.55;1.10;;;19.30;99.90;;;;;;2071774;28;20381;-69
2021/08/07 01:26:18;;;;;;;1.65;0.98;;;19.30;99.90;;;;;;2072001;28;20381;-69
2021/08/07 01:27:26;;;;;;;1.58;1.38;;;19.30;99.90;;;;;;2065318;28;20030;-69
2021/08/07 01:28:32;;;;;;;0.98;0.80;;;19.30;99.90;;;;;;2071725;28;20037;-69
2021/08/07 01:29:33;;;;;;;1.50;1.20;;;19.30;99.90;;;;;;2071681;28;20462;-69
2021/08/07 01:30:34;;;;;;;2.63;1.30;;;19.30;99.90;;;;;;2071886;28;20474;-69
2021/08/07 01:31:35;;;;;;;2.67;1.38;;;19.30;99.90;;;;;;2071473;28;20068;-68
2021/08/07 01:32:38;;;;;;;1.33;1.20;;;19.30;99.90;;;;;;2071390;28;20032;-69
2021/08/07 01:33:41;;;;;;;1.58;1.00;;;19.30;99.90;;;;;;2071620;28;20041;-69
2021/08/07 01:34:43;;;;;;;3.63;1.80;;;19.40;99.90;;;;;;2074183;28;20545;-69
2021/08/07 01:35:45;;;;;;;2.08;1.30;;;19.30;99.90;;;;;;2071577;28;20141;-69
2021/08/07 01:36:47;;;;;;;2.20;1.02;;;19.30;99.90;;;;;;2071640;28;20022;-68
2021/08/07 01:37:48;;;;;;;1.88;1.10;;;19.30;99.90;;;;;;2072778;28;20014;-69
2021/08/07 01:38:49;;;;;;;2.53;1.45;;;19.30;99.90;;;;;;2065650;28;20458;-69
2021/08/07 01:39:52;;;;;;;2.60;0.98;;;19.30;99.90;;;;;;2071497;28;20025;-69
2021/08/07 01:40:53;;;;;;;5.90;1.23;;;19.30;99.90;;;;;;2071293;28;20513;-69
2021/08/07 01:41:53;;;;;;;2.92;1.17;;;19.30;99.90;;;;;;2071202;28;20022;-69
2021/08/07 01:42:54;;;;;;;2.45;1.50;;;19.30;99.90;;;;;;2071402;28;20505;-69
2021/08/07 01:43:54;;;;;;;2.83;1.40;;;19.30;99.90;;;;;;2071395;28;20018;-69
2021/08/07 01:44:55;;;;;;;1.45;1.10;;;19.30;99.90;;;;;;2071125;28;20030;-69
2021/08/07 01:45:56;;;;;;;2.33;1.30;;;19.30;99.90;;;;;;2071748;28;20025;-69
2021/08/07 01:47:02;;;;;;;1.17;1.10;;;19.30;99.90;;;;;;2071605;28;20050;-69
2021/08/07 01:48:11;;;;;;;2.42;1.25;;;19.30;99.90;;;;;;2071522;28;20022;-68
2021/08/07 01:49:18;;;;;;;2.80;1.40;;;19.30;99.90;;;;;;2075953;28;20069;-68
2021/08/07 01:50:24;;;;;;;2.35;1.10;;;19.30;99.90;;;;;;2071636;28;20033;-69
2021/08/07 01:51:37;;;;;;;1.70;1.30;;;19.30;99.90;;;;;;2071456;28;20514;-69
2021/08/07 01:52:43;;;;;;;3.15;1.40;;;19.30;99.90;;;;;;2071179;28;20115;-68
2021/08/07 01:53:45;;;;;;;2.22;1.45;;;19.20;99.90;;;;;;2071170;28;20781;-68
2021/08/07 01:54:49;;;;;;;4.03;1.63;;;19.30;99.90;;;;;;2071374;28;20045;-68
2021/08/07 01:56:00;;;;;;;1.13;0.93;;;19.30;99.90;;;;;;2071607;28;20018;-68
2021/08/07 01:57:04;;;;;;;2.15;1.13;;;19.30;99.90;;;;;;2071608;28;20025;-69
2021/08/07 01:58:11;;;;;;;1.35;1.20;;;19.30;99.90;;;;;;2071759;28;20089;-68
2021/08/07 01:59:18;;;;;;;3.08;1.25;;;19.20;99.90;;;;;;2070839;28;20022;-68
2021/08/07 02:00:21;;;;;;;3.65;1.55;;;19.20;99.90;;;;;;2071483;28;20032;-68
2021/08/07 02:01:24;;;;;;;2.67;1.15;;;19.20;99.90;;;;;;2072659;28;20458;-69
2021/08/07 02:02:27;;;;;;;3.78;1.45;;;19.20;99.90;;;;;;2073119;28;20030;-68
2021/08/07 02:03:32;;;;;;;1.73;1.10;;;19.20;99.90;;;;;;2072716;28;20490;-68
2021/08/07 02:04:32;;;;;;;2.75;1.13;;;19.20;99.90;;;;;;2073941;28;20429;-68
2021/08/07 02:05:33;;;;;;;4.97;1.40;;;19.20;99.90;;;;;;2072372;28;20030;-68
2021/08/07 02:06:35;;;;;;;1.20;0.90;;;19.10;99.90;;;;;;2073125;28;20033;-69
2021/08/07 02:07:36;;;;;;;2.78;1.15;;;19.20;99.90;;;;;;2072555;28;20034;-68
2021/08/07 02:08:39;;;;;;;2.83;1.15;;;19.20;99.90;;;;;;2072932;28;20535;-69
2021/08/07 02:09:42;;;;;;;2.55;1.20;;;19.10;99.90;;;;;;2072842;28;20037;-69
2021/08/07 02:10:46;;;;;;;2.35;1.40;;;19.10;99.90;;;;;;2073086;28;20026;-69
2021/08/07 02:11:47;;;;;;;5.57;1.13;;;19.20;99.90;;;;;;2072620;28;20096;-69
2021/08/07 02:12:48;;;;;;;4.70;1.10;;;19.10;99.90;;;;;;2072305;28;20090;-68
2021/08/07 02:13:49;;;;;;;1.55;1.23;;;19.10;99.90;;;;;;2072078;28;20577;-68
2021/08/07 02:14:52;;;;;;;1.33;1.17;;;19.10;99.90;;;;;;2072479;28;20469;-68
2021/08/07 02:15:54;;;;;;;2.50;0.93;;;19.10;99.90;;;;;;2072725;28;20050;-68
2021/08/07 02:16:55;;;;;;;3.00;0.90;;;19.10;99.90;;;;;;2073376;28;20424;-68
2021/08/07 02:17:56;;;;;;;3.63;1.40;;;19.10;99.90;;;;;;2072699;28;20091;-69
2021/08/07 02:18:59;;;;;;;1.45;1.00;;;19.20;99.90;;;;;;2072581;28;20030;-68
2021/08/07 02:20:00;;;;;;;1.80;0.90;;;19.20;99.90;;;;;;2072702;28;20026;-68
2021/08/07 02:21:01;;;;;;;3.42;1.55;;;19.20;99.90;;;;;;2072788;28;20054;-68
2021/08/07 02:22:02;;;;;;;1.35;1.00;;;19.20;99.90;;;;;;2072547;28;20056;-68
2021/08/07 02:23:02;;;;;;;4.35;1.23;;;19.20;99.90;;;;;;2072670;28;20038;-68
2021/08/07 02:24:04;;;;;;;3.22;1.10;;;19.10;99.90;;;;;;2072760;28;20036;-68
2021/08/07 02:25:05;;;;;;;2.35;1.38;;;19.20;99.90;;;;;;2072532;28;20021;-68
2021/08/07 02:26:09;;;;;;;2.05;1.00;;;19.20;99.90;;;;;;2072977;28;20817;-68
2021/08/07 02:27:09;;;;;;;1.08;1.00;;;19.20;99.90;;;;;;2072693;28;20033;-69
2021/08/07 02:28:13;;;;;;;2.08;1.13;;;19.20;99.90;;;;;;2072905;28;20021;-68
2021/08/07 02:29:14;;;;;;;2.92;1.63;;;19.20;99.90;;;;;;2072234;28;20053;-69
2021/08/07 02:30:15;;;;;;;2.35;1.05;;;19.20;99.90;;;;;;2072305;28;20025;-69
2021/08/07 02:31:16;;;;;;;2.38;1.15;;;19.20;99.90;;;;;;2078027;28;20108;-68
2021/08/07 02:32:17;;;;;;;3.30;1.15;;;19.20;99.90;;;;;;2072627;28;20026;-69
2021/08/07 02:33:21;;;;;;;1.52;0.90;;;19.10;99.90;;;;;;2072030;28;20049;-68
2021/08/07 02:34:22;;;;;;;2.60;1.00;;;19.20;99.90;;;;;;2072261;28;20061;-69
2021/08/07 02:35:23;;;;;;;2.13;1.20;;;19.20;99.90;;;;;;2071698;28;20022;-69
2021/08/07 02:36:24;;;;;;;3.03;1.20;;;19.20;99.90;;;;;;2072692;28;20145;-69
2021/08/07 02:37:25;;;;;;;2.05;0.77;;;19.10;99.90;;;;;;2072485;28;20091;-69
2021/08/07 02:38:26;;;;;;;1.85;0.77;;;19.20;99.90;;;;;;2072759;28;20025;-69
2021/08/07 02:39:28;;;;;;;2.33;1.13;;;19.20;99.90;;;;;;2072650;28;20018;-68
2021/08/07 02:40:29;;;;;;;1.35;0.90;;;19.20;99.90;;;;;;2072845;28;20072;-68
2021/08/07 02:41:31;;;;;;;1.70;1.10;;;19.20;99.90;;;;;;2072717;28;20036;-69
2021/08/07 02:42:32;;;;;;;2.15;0.90;;;19.20;99.90;;;;;;2073061;28;20022;-69
2021/08/07 02:43:33;;;;;;;2.42;0.90;;;19.20;99.90;;;;;;2087902;28;20021;-69
2021/08/07 02:44:33;;;;;;;1.20;1.02;;;19.20;99.90;;;;;;2088561;28;20033;-69
2021/08/07 02:45:35;;;;;;;2.92;0.90;;;19.20;99.90;;;;;;2072725;28;20032;-69
2021/08/07 02:46:40;;;;;;;1.35;0.90;;;19.20;99.90;;;;;;2072299;28;20036;-69
2021/08/07 02:47:40;;;;;;;4.50;1.13;;;19.20;99.90;;;;;;2072657;28;20030;-69
2021/08/07 02:48:42;;;;;;;1.33;1.08;;;19.20;99.90;;;;;;2072885;28;20034;-68
2021/08/07 02:49:42;;;;;;;1.60;0.90;;;19.20;99.90;;;;;;2072728;28;20168;-69
2021/08/07 02:50:44;;;;;;;1.50;0.90;;;19.20;99.90;;;;;;2073079;28;20034;-69
2021/08/07 02:51:49;;;;;;;1.92;1.00;;;19.20;99.90;;;;;;2088056;28;20377;-69
2021/08/07 02:52:49;;;;;;;1.75;1.08;;;19.20;99.90;;;;;;2086958;28;20025;-69
2021/08/07 02:53:50;;;;;;;1.83;1.10;;;19.20;99.90;;;;;;2072790;28;20033;-69
2021/08/07 02:54:52;;;;;;;1.90;1.17;;;19.10;99.90;;;;;;2072813;28;20097;-69
2021/08/07 02:55:53;;;;;;;2.45;1.05;;;19.10;99.90;;;;;;2072689;28;20024;-69
2021/08/07 02:56:54;;;;;;;2.67;1.20;;;19.10;99.90;;;;;;2072603;28;20037;-69
2021/08/07 02:57:56;;;;;;;5.07;1.65;;;19.10;99.90;;;;;;2072238;28;20029;-69
2021/08/07 02:58:56;;;;;;;1.10;1.00;;;19.10;99.90;;;;;;2072735;28;20038;-68
2021/08/07 03:00:01;;;;;;;0.80;0.80;;;19.10;99.90;;;;;;2072645;28;20029;-68
2021/08/07 03:01:01;;;;;;;1.27;1.13;;;19.10;99.90;;;;;;2074575;28;20398;-68
2021/08/07 03:02:02;;;;;;;2.55;1.15;;;19.10;99.90;;;;;;2078978;28;20018;-69
2021/08/07 03:03:04;;;;;;;3.38;1.10;;;19.10;99.90;;;;;;2071445;28;20050;-69
2021/08/07 03:04:04;;;;;;;1.98;1.20;;;19.10;99.90;;;;;;2071864;28;20506;-68
2021/08/07 03:05:05;;;;;;;1.00;1.00;;;19.00;99.90;;;;;;2071837;28;20426;-69
2021/08/07 03:06:06;;;;;;;2.03;1.00;;;19.00;99.90;;;;;;2072946;28;20522;-69
2021/08/07 03:07:06;;;;;;;2.20;1.00;;;19.00;99.90;;;;;;2073155;28;20109;-69
2021/08/07 03:08:07;;;;;;;2.83;1.10;;;19.00;99.90;;;;;;2073176;28;20038;-69
2021/08/07 03:09:07;;;;;;;2.88;1.33;;;19.00;99.90;;;;;;2073520;28;20038;-69
2021/08/07 03:10:09;;;;;;;2.47;1.10;;;19.00;99.90;;;;;;2073045;28;20061;-68
2021/08/07 03:11:11;;;;;;;3.13;1.10;;;19.00;99.90;;;;;;2068649;28;20030;-69
2021/08/07 03:12:11;;;;;;;0.98;0.80;;;19.00;99.90;;;;;;2071927;28;20053;-69
2021/08/07 03:13:12;;;;;;;2.28;1.02;;;19.00;99.90;;;;;;2071978;28;20026;-68
2021/08/07 03:14:13;;;;;;;2.15;1.10;;;19.00;99.90;;;;;;2071510;28;20420;-68
2021/08/07 03:15:14;;;;;;;2.92;1.13;;;18.90;99.90;;;;;;2072791;28;20037;-69
2021/08/07 03:16:14;;;;;;;2.55;0.95;;;18.90;99.90;;;;;;2072950;28;20025;-69
2021/08/07 03:17:15;;;;;;;1.35;0.70;;;18.90;99.90;;;;;;2073075;28;20026;-68
2021/08/07 03:18:16;;;;;;;4.18;1.30;;;19.00;99.90;;;;;;2072815;28;20032;-69
2021/08/07 03:19:16;;;;;;;2.60;1.25;;;18.90;99.90;;;;;;2072867;28;20053;-69
2021/08/07 03:20:17;;;;;;;1.17;0.98;;;18.90;99.90;;;;;;2072758;28;20331;-69
2021/08/07 03:21:18;;;;;;;2.28;1.00;;;18.90;99.90;;;;;;2077192;28;20064;-69
2021/08/07 03:22:18;;;;;;;1.92;1.20;;;18.90;99.90;;;;;;2074338;28;20410;-69
2021/08/07 03:23:19;;;;;;;1.33;1.00;;;18.90;99.90;;;;;;2072452;28;20075;-69
2021/08/07 03:24:20;;;;;;;1.70;1.00;;;18.90;99.90;;;;;;2073106;28;20049;-69
2021/08/07 03:25:20;;;;;;;3.88;1.52;;;18.90;99.90;;;;;;2072608;28;20030;-69
2021/08/07 03:26:22;;;;;;;2.45;1.05;;;18.90;99.90;;;;;;2072664;28;20105;-69
2021/08/07 03:27:23;;;;;;;1.40;0.93;;;18.90;99.90;;;;;;2072741;28;20030;-69
2021/08/07 03:28:23;;;;;;;2.95;1.17;;;18.80;99.90;;;;;;2073086;28;20038;-69
2021/08/07 03:29:24;;;;;;;2.17;1.00;;;18.90;99.90;;;;;;2072935;28;20034;-68
2021/08/07 03:30:26;;;;;;;4.50;1.50;;;18.90;99.90;;;;;;2072093;28;20026;-68
2021/08/07 03:31:26;;;;;;;1.10;1.00;;;18.80;99.90;;;;;;2074460;28;20033;-69
2021/08/07 03:32:27;;;;;;;2.20;1.20;;;18.80;99.90;;;;;;2064708;28;20052;-69
2021/08/07 03:33:27;;;;;;;1.13;0.88;;;18.80;99.90;;;;;;2068790;28;20065;-69
2021/08/07 03:34:28;;;;;;;2.22;1.38;;;18.80;99.90;;;;;;2073009;28;20062;-69
2021/08/07 03:35:28;;;;;;;2.17;1.20;;;18.80;99.90;;;;;;2072865;28;20585;-69
2021/08/07 03:36:29;;;;;;;1.38;1.00;;;18.80;99.90;;;;;;2072958;28;20060;-69
2021/08/07 03:37:29;;;;;;;1.67;1.10;;;18.80;99.90;;;;;;2071945;28;20081;-68
2021/08/07 03:38:30;;;;;;;1.42;1.10;;;18.80;99.90;;;;;;2071883;28;20054;-68
2021/08/07 03:39:30;;;;;;;1.23;1.02;;;18.80;99.90;;;;;;2072881;28;20025;-68
2021/08/07 03:40:31;;;;;;;1.60;1.05;;;18.80;99.90;;;;;;2072761;28;20486;-69
2021/08/07 03:41:32;;;;;;;1.35;0.90;;;18.80;99.90;;;;;;2075744;28;20033;-69
2021/08/07 03:42:32;;;;;;;1.10;0.98;;;18.80;99.90;;;;;;2080997;28;20044;-69
2021/08/07 03:43:33;;;;;;;2.15;0.98;;;18.70;99.90;;;;;;2072789;28;20041;-69
2021/08/07 03:44:33;;;;;;;1.50;0.90;;;18.80;99.90;;;;;;2072685;28;20636;-69
2021/08/07 03:45:34;;;;;;;1.70;0.93;;;18.70;99.90;;;;;;2072123;28;20045;-69
2021/08/07 03:46:34;;;;;;;1.67;1.23;;;18.70;99.90;;;;;;2072841;28;20111;-69
2021/08/07 03:47:49;;;;;;;1.05;0.95;;;18.70;99.90;;;;;;2071748;28;20412;-69
2021/08/07 03:48:50;;;;;;;2.10;1.23;;;18.70;99.90;;;;;;2078004;28;20381;-69
2021/08/07 03:49:51;;;;;;;2.30;1.20;;;18.70;99.90;;;;;;2079729;28;20052;-69
2021/08/07 03:50:51;;;;;;;2.28;1.20;;;18.70;99.90;;;;;;2075490;28;20030;-69
2021/08/07 03:51:52;;;;;;;2.17;1.10;;;18.70;99.90;;;;;;2079682;28;20038;-69
2021/08/07 03:52:52;;;;;;;0.93;0.93;;;18.60;99.90;;;;;;2075895;28;20457;-69
2021/08/07 03:53:53;;;;;;;3.42;0.90;;;18.60;99.90;;;;;;2072454;28;20444;-69
2021/08/07 03:54:54;;;;;;;1.33;1.00;;;18.60;99.90;;;;;;2072634;28;20022;-69
2021/08/07 03:55:54;;;;;;;1.88;1.13;;;18.60;99.90;;;;;;2072295;28;20050;-69
2021/08/07 03:56:55;;;;;;;2.47;1.27;;;18.60;99.90;;;;;;2072328;28;20030;-69
2021/08/07 03:57:58;;;;;;;1.98;0.90;;;18.60;99.90;;;;;;2072541;28;20101;-69
2021/08/07 03:58:59;;;;;;;2.22;1.17;;;18.60;99.90;;;;;;2072804;28;20030;-69
2021/08/07 04:00:00;;;;;;;3.00;1.35;;;18.50;99.90;;;;;;2072597;28;20033;-69
2021/08/07 04:01:00;;;;;;;2.70;1.30;;;18.50;99.90;;;;;;2072691;28;20022;-69
2021/08/07 04:02:01;;;;;;;1.10;1.00;;;18.50;99.90;;;;;;2080297;28;20038;-69
2021/08/07 04:03:02;;;;;;;3.10;1.40;;;18.50;99.90;;;;;;2072707;28;20018;-69
2021/08/07 04:04:02;;;;;;;3.75;1.05;;;18.50;99.90;;;;;;2072464;28;20029;-68
2021/08/07 04:05:03;;;;;;;2.13;1.00;;;18.50;99.90;;;;;;2072561;28;20037;-69
2021/08/07 04:06:04;;;;;;;1.30;1.20;;;18.50;99.90;;;;;;2072551;28;20030;-69
2021/08/07 04:07:04;;;;;;;2.60;1.42;;;18.40;99.90;;;;;;2071502;28;20528;-69
2021/08/07 04:08:09;;;;;;;1.45;1.25;;;18.40;99.90;;;;;;2072063;28;20081;-69
2021/08/07 04:09:09;;;;;;;3.55;1.50;;;18.40;99.90;;;;;;2072259;28;20370;-68
2021/08/07 04:10:10;;;;;;;2.40;1.45;;;18.40;99.90;;;;;;2072255;28;20050;-69
2021/08/07 04:11:10;;;;;;;2.60;1.40;;;18.30;99.90;;;;;;2066949;28;20030;-69
2021/08/07 04:12:11;;;;;;;1.17;1.08;;;18.30;99.90;;;;;;2077719;28;20030;-69
2021/08/07 04:13:12;;;;;;;1.95;1.20;;;18.30;99.90;;;;;;2071787;28;20101;-69
2021/08/07 04:14:12;;;;;;;1.85;1.27;;;18.30;99.90;;;;;;2072340;28;20025;-68
2021/08/07 04:15:13;;;;;;;2.78;1.15;;;18.30;99.90;;;;;;2072512;28;20033;-69
2021/08/07 04:16:13;;;;;;;2.53;1.48;;;18.20;99.90;;;;;;2072402;28;20026;-69
2021/08/07 04:17:14;;;;;;;5.43;1.85;;;18.20;99.90;;;;;;2072235;28;20057;-69
2021/08/07 04:18:14;;;;;;;2.20;1.20;;;18.20;99.90;;;;;;2072604;28;20021;-69
2021/08/07 04:19:15;;;;;;;3.22;1.30;;;18.20;99.90;;;;;;2072341;28;20029;-69
2021/08/07 04:20:16;;;;;;;3.75;1.60;;;18.20;99.90;;;;;;2072606;28;20030;-69
2021/08/07 04:21:16;;;;;;;2.03;1.27;;;18.10;99.90;;;;;;2073543;28;20152;-68
2021/08/07 04:22:17;;;;;;;1.63;1.10;;;18.10;99.90;;;;;;2074588;28;20030;-69
2021/08/07 04:23:18;;;;;;;3.03;1.40;;;18.10;99.90;;;;;;2071649;28;20029;-69
2021/08/07 04:24:18;;;;;;;2.47;1.30;;;18.10;99.90;;;;;;2072507;28;20057;-69
2021/08/07 04:25:19;;;;;;;3.20;1.60;;;18.10;99.90;;;;;;2072526;28;20026;-69
2021/08/07 04:26:19;;;;;;;1.77;1.33;;;18.10;99.90;;;;;;2072361;28;20064;-69
2021/08/07 04:27:20;;;;;;;1.33;1.23;;;18.10;99.90;;;;;;2071973;28;20068;-69
2021/08/07 04:28:21;;;;;;;1.98;1.20;;;18.10;99.90;;;;;;2072511;28;20482;-69
2021/08/07 04:29:21;;;;;;;3.05;1.42;;;18.10;99.90;;;;;;2072438;28;20036;-69
2021/08/07 04:30:22;;;;;;;4.72;1.65;;;18.10;99.90;;;;;;2072412;28;20022;-69
2021/08/07 04:31:22;;;;;;;3.45;1.48;;;18.10;99.90;;;;;;2073480;28;20083;-69
2021/08/07 04:32:23;;;;;;;2.17;1.52;;;18.10;99.90;;;;;;2080819;28;20516;-69
2021/08/07 04:33:24;;;;;;;2.85;1.27;;;18.10;99.90;;;;;;2075945;28;20030;-69
2021/08/07 04:34:24;;;;;;;2.65;1.30;;;18.10;99.90;;;;;;2072237;28;20474;-69
2021/08/07 04:35:25;;;;;;;3.35;1.33;;;18.10;99.90;;;;;;2072057;28;20110;-69
2021/08/07 04:36:25;;;;;;;1.42;1.30;;;18.10;99.90;;;;;;2072324;28;20030;-69
2021/08/07 04:37:26;;;;;;;3.33;1.58;;;18.10;99.90;;;;;;2072132;28;20052;-69
2021/08/07 04:38:26;;;;;;;1.70;1.25;;;18.10;99.90;;;;;;2072307;28;20065;-69
2021/08/07 04:39:27;;;;;;;2.67;1.40;;;18.20;99.90;;;;;;2072154;28;20022;-69
2021/08/07 04:40:29;;;;;;;3.08;1.38;;;18.20;99.90;;;;;;2072250;28;20386;-69
2021/08/07 04:41:30;;;;;;;2.60;1.30;;;18.20;99.90;;;;;;2074826;28;20623;-69
2021/08/07 04:42:30;;;;;;;1.73;1.20;;;18.20;99.90;;;;;;2079932;28;20022;-69
2021/08/07 04:43:31;;;;;;;3.40;1.35;;;18.20;99.90;;;;;;2072557;28;20030;-69
2021/08/07 04:44:32;;;;;;;7.60;1.52;;;18.20;99.90;;;;;;2071719;28;20053;-69
2021/08/07 04:45:33;;;;;;;2.92;1.33;;;18.20;99.90;;;;;;2088080;28;20103;-69
2021/08/07 04:46:33;;;;;;;2.05;1.33;;;18.20;99.90;;;;;;2087935;28;20036;-69
2021/08/07 04:47:34;;;;;;;1.42;1.33;;;18.30;99.90;;;;;;2072158;28;20101;-70
2021/08/07 04:48:34;;;;;;;3.63;1.20;;;18.30;99.90;;;;;;2072354;28;20033;-69
2021/08/07 04:49:35;;;;;;;1.65;1.27;;;18.30;99.90;;;;;;2072106;28;20046;-69
2021/08/07 04:50:36;;;;;;;2.85;1.00;;;18.30;99.90;;;;;;2072018;28;20076;-69
2021/08/07 04:51:37;;;;;;;3.55;1.05;;;18.30;99.90;;;;;;2075391;28;20030;-69
2021/08/07 04:52:37;;;;;;;1.55;1.25;;;18.40;99.90;;;;;;2078337;28;20057;-69
2021/08/07 04:53:38;;;;;;;1.65;1.30;;;18.40;99.90;;;;;;2072384;28;20029;-69
2021/08/07 04:54:38;;;;;;;2.03;1.30;;;18.40;99.90;;;;;;2071950;28;20046;-69
2021/08/07 04:55:39;;;;;;;1.90;1.42;;;18.40;99.90;;;;;;2072406;28;20021;-69
2021/08/07 04:56:40;;;;;;;3.15;1.50;;;18.40;99.90;;;;;;2071873;28;20029;-69
2021/08/07 04:57:40;;;;;;;1.52;1.10;;;18.40;99.90;;;;;;2071925;28;20068;-68
2021/08/07 04:58:41;;;;;;;2.92;1.10;;;18.40;99.90;;;;;;2072194;28;20033;-69
2021/08/07 04:59:41;;;;;;;1.63;1.23;;;18.40;99.90;;;;;;2071883;28;20026;-69
2021/08/07 05:00:42;;;;;;;2.55;1.33;;;18.40;99.90;;;;;;2071974;28;20032;-69
2021/08/07 05:01:42;;;;;;;2.20;1.52;;;18.40;99.90;;;;;;2076139;28;20493;-69
2021/08/07 05:02:45;;;;;;;4.43;1.73;;;18.40;99.90;;;;;;2074349;28;20029;-68
2021/08/07 05:03:46;;;;;;;4.85;1.17;;;18.50;99.90;;;;;;2072258;28;20451;-68
2021/08/07 05:04:46;;;;;;;2.95;1.42;;;18.50;99.90;;;;;;2072015;28;20485;-68
2021/08/07 05:05:47;;;;;;;2.15;1.25;;;18.50;99.90;;;;;;2072184;28;20391;-69
2021/08/07 05:06:47;;;;;;;2.80;1.27;;;18.50;99.90;;;;;;2071821;28;20019;-69
2021/08/07 05:07:48;;;;;;;4.00;1.33;;;18.50;99.90;;;;;;2071924;28;20462;-69
2021/08/07 05:08:49;;;;;;;3.47;1.27;;;18.50;99.90;;;;;;2072187;28;20033;-69
2021/08/07 05:09:49;;;;;;;3.05;1.45;;;18.50;99.90;;;;;;2072135;28;20053;-69
2021/08/07 05:10:50;;;;;;;2.15;1.40;;;18.50;99.90;;;;;;2071571;28;20100;-69
2021/08/07 05:11:50;;;;;;;2.20;1.25;;;18.50;99.90;;;;;;2074295;28;20037;-69
2021/08/07 05:12:51;;;;;;;2.28;1.48;;;18.50;99.90;;;;;;2071574;28;20029;-69
2021/08/07 05:13:51;;;;;;;3.30;1.52;;;18.60;99.90;;;;;;2071985;28;20476;-68
2021/08/07 05:14:52;;;;;;;3.38;1.15;;;18.60;99.90;;;;;;2071951;28;20076;-69
2021/08/07 05:15:52;;;;;;;3.33;1.48;;;18.60;99.90;;;;;;2071850;28;20049;-69
2021/08/07 05:16:53;;;;;;;4.47;1.17;;;18.60;99.90;;;;;;2071916;28;20109;-69
2021/08/07 05:17:54;;;;;;;3.72;1.50;;;18.60;99.90;;;;;;2071621;28;20037;-69
2021/08/07 05:18:55;;;;;;;3.72;1.10;;;18.60;99.90;;;;;;2072083;28;20021;-69
2021/08/07 05:19:56;;;;;;;3.88;1.20;;;18.60;99.90;;;;;;2063758;28;20022;-69
2021/08/07 05:20:56;;;;;;;2.30;1.33;;;18.60;99.90;;;;;;2072347;28;20064;-69
2021/08/07 05:21:57;;;;;;;1.83;1.15;;;18.60;99.90;;;;;;2074011;28;20026;-69
2021/08/07 05:22:58;;;;;;;1.98;1.30;;;18.70;99.90;;;;;;2071433;28;20030;-69